createdAt,value
2018-09-17T00:01:27.534Z,11.30
2018-09-17T00:03:56.542Z,11.30
2018-09-17T00:06:24.337Z,11.30
2018-09-17T00:08:52.549Z,11.30
2018-09-17T00:11:20.448Z,11.30
2018-09-17T00:13:48.739Z,11.30
2018-09-17T00:16:18.537Z,11.40
2018-09-17T00:18:47.821Z,11.30
2018-09-17T00:21:16.077Z,11.30
2018-09-17T00:23:45.269Z,11.30
2018-09-17T00:26:12.955Z,11.30
2018-09-17T00:28:40.962Z,11.30
2018-09-17T00:31:10.006Z,11.40
2018-09-17T00:33:39.621Z,11.50
2018-09-17T00:36:07.373Z,11.50
2018-09-17T00:38:35.984Z,11.50
2018-09-17T00:41:03.810Z,11.50
2018-09-17T00:43:31.649Z,11.50
2018-09-17T00:46:00.641Z,11.40
2018-09-17T00:48:29.659Z,11.40
2018-09-17T00:50:58.609Z,11.50
2018-09-17T00:53:26.934Z,11.50
2018-09-17T00:55:56.657Z,11.50
2018-09-17T00:58:25.304Z,11.60
2018-09-17T01:00:54.239Z,11.50
2018-09-17T01:03:21.844Z,11.60
2018-09-17T01:05:51.038Z,11.60
2018-09-17T01:08:19.542Z,11.60
2018-09-17T01:10:47.681Z,11.60
2018-09-17T01:13:15.393Z,11.60
2018-09-17T01:15:44.192Z,11.60
2018-09-17T01:18:15.735Z,11.60
2018-09-17T01:20:44.285Z,11.60
2018-09-17T01:23:12.393Z,11.60
2018-09-17T01:25:40.736Z,11.70
2018-09-17T01:28:08.629Z,11.60
2018-09-17T01:30:36.473Z,11.70
2018-09-17T01:33:04.877Z,11.70
2018-09-17T01:35:33.765Z,11.70
2018-09-17T01:38:01.723Z,11.70
2018-09-17T01:40:32.057Z,11.70
2018-09-17T01:42:59.652Z,11.70
2018-09-17T01:45:27.811Z,11.80
2018-09-17T01:47:56.605Z,11.80
2018-09-17T01:50:25.221Z,11.80
2018-09-17T01:52:52.661Z,11.80
2018-09-17T01:55:20.324Z,11.80
2018-09-17T01:57:49.452Z,11.80
2018-09-17T02:00:17.944Z,11.90
2018-09-17T02:02:46.013Z,11.90
2018-09-17T02:05:13.509Z,11.90
2018-09-17T02:07:41.311Z,12.00
2018-09-17T02:10:10.067Z,11.90
2018-09-17T02:12:38.878Z,12.00
2018-09-17T02:15:07.220Z,12.00
2018-09-17T02:17:38.973Z,11.90
2018-09-17T02:20:06.756Z,12.00
2018-09-17T02:22:34.446Z,12.00
2018-09-17T02:25:02.528Z,12.00
2018-09-17T02:27:30.306Z,12.00
2018-09-17T02:29:58.796Z,12.10
2018-09-17T02:32:26.585Z,12.00
2018-09-17T02:34:54.217Z,12.10
2018-09-17T02:37:23.253Z,12.10
2018-09-17T02:39:52.405Z,12.10
2018-09-17T02:42:20.394Z,12.10
2018-09-17T02:44:48.459Z,12.20
2018-09-17T02:47:16.728Z,12.10
2018-09-17T02:49:48.881Z,12.10
2018-09-17T02:52:18.865Z,12.10
2018-09-17T02:54:47.137Z,12.20
2018-09-17T02:57:18.893Z,12.20
2018-09-17T02:59:47.401Z,12.20
2018-09-17T03:02:16.633Z,12.20
2018-09-17T03:04:46.017Z,12.30
2018-09-17T03:07:15.108Z,12.30
2018-09-17T03:09:43.956Z,12.30
2018-09-17T03:12:13.090Z,12.30
2018-09-17T03:14:45.157Z,12.30
2018-09-17T03:17:14.508Z,12.40
2018-09-17T03:19:43.724Z,12.30
2018-09-17T03:22:12.530Z,12.30
2018-09-17T03:24:42.057Z,12.30
2018-09-17T03:27:11.392Z,12.40
2018-09-17T03:29:40.021Z,12.40
2018-09-17T03:32:08.493Z,12.40
2018-09-17T03:34:36.404Z,12.40
2018-09-17T03:37:05.862Z,12.40
2018-09-17T03:39:35.967Z,12.40
2018-09-17T03:42:05.441Z,12.40
2018-09-17T03:44:34.719Z,12.40
2018-09-17T03:47:03.833Z,12.40
2018-09-17T03:49:32.605Z,12.50
2018-09-17T03:52:02.240Z,12.40
2018-09-17T03:54:30.841Z,12.40
2018-09-17T03:56:59.493Z,12.50
2018-09-17T03:59:28.488Z,12.50
2018-09-17T04:01:57.249Z,12.40
2018-09-17T04:04:25.154Z,12.50
2018-09-17T04:06:53.461Z,12.50
2018-09-17T04:09:23.708Z,12.50
2018-09-17T04:11:52.695Z,12.50
2018-09-17T04:14:20.847Z,12.50
2018-09-17T04:16:49.141Z,12.50
2018-09-17T04:19:17.606Z,12.50
2018-09-17T04:21:46.814Z,12.50
2018-09-17T04:24:14.486Z,12.50
2018-09-17T04:26:42.013Z,12.50
2018-09-17T04:29:13.138Z,12.60
2018-09-17T04:31:41.539Z,12.50
2018-09-17T04:34:09.866Z,12.50
2018-09-17T04:36:39.821Z,12.60
2018-09-17T04:39:09.944Z,12.60
2018-09-17T04:41:39.375Z,12.60
2018-09-17T04:44:08.607Z,12.60
2018-09-17T04:46:36.721Z,12.60
2018-09-17T04:49:05.613Z,12.50
2018-09-17T04:51:33.797Z,12.60
2018-09-17T04:54:01.850Z,12.50
2018-09-17T04:56:29.797Z,12.60
2018-09-17T04:58:58.494Z,12.60
2018-09-17T05:01:27.093Z,12.60
2018-09-17T05:04:00.803Z,12.60
2018-09-17T05:06:29.393Z,12.60
2018-09-17T05:08:58.978Z,12.60
2018-09-17T05:11:28.685Z,12.70
2018-09-17T05:13:56.951Z,12.70
2018-09-17T05:16:25.074Z,12.70
2018-09-17T05:18:53.214Z,12.70
2018-09-17T05:21:21.241Z,12.70
2018-09-17T05:23:49.920Z,12.80
2018-09-17T05:26:18.739Z,12.80
2018-09-17T05:28:46.329Z,12.80
2018-09-17T05:31:14.902Z,12.80
2018-09-17T05:33:43.541Z,12.80
2018-09-17T05:36:12.513Z,12.80
2018-09-17T05:38:41.325Z,12.80
2018-09-17T05:41:10.173Z,12.90
2018-09-17T05:43:39.269Z,12.90
2018-09-17T05:46:07.342Z,12.90
2018-09-17T05:48:34.921Z,12.90
2018-09-17T05:51:03.816Z,12.90
2018-09-17T05:53:32.261Z,12.90
2018-09-17T05:56:01.102Z,12.90
2018-09-17T05:58:29.098Z,12.90
2018-09-17T06:00:57.060Z,12.90
2018-09-17T06:03:24.860Z,12.90
2018-09-17T06:05:53.378Z,12.90
2018-09-17T06:08:21.109Z,13.00
2018-09-17T06:10:49.074Z,13.10
2018-09-17T06:13:16.732Z,13.10
2018-09-17T06:15:45.695Z,13.20
2018-09-17T06:18:13.749Z,13.20
2018-09-17T06:20:41.613Z,13.30
2018-09-17T06:23:09.216Z,13.30
2018-09-17T06:25:38.785Z,13.40
2018-09-17T06:28:06.559Z,13.40
2018-09-17T06:30:35.577Z,13.40
2018-09-17T06:33:04.777Z,13.40
2018-09-17T06:35:32.753Z,13.40
2018-09-17T06:38:00.866Z,13.50
2018-09-17T06:40:29.066Z,13.50
2018-09-17T06:42:57.929Z,13.50
2018-09-17T06:45:27.206Z,13.60
2018-09-17T06:47:56.113Z,13.50
2018-09-17T06:50:25.226Z,13.60
2018-09-17T06:52:54.325Z,13.60
2018-09-17T06:55:26.810Z,13.70
2018-09-17T06:57:55.033Z,13.80
2018-09-17T07:00:24.495Z,13.80
2018-09-17T07:02:53.345Z,13.90
2018-09-17T07:05:20.818Z,13.90
2018-09-17T07:07:49.116Z,13.90
2018-09-17T07:10:17.695Z,14.00
2018-09-17T07:12:46.485Z,14.00
2018-09-17T07:15:14.896Z,14.10
2018-09-17T07:17:43.551Z,14.10
2018-09-17T07:20:12.390Z,14.10
2018-09-17T07:22:41.462Z,14.10
2018-09-17T07:25:10.580Z,14.20
2018-09-17T07:27:37.980Z,14.10
2018-09-17T07:30:07.641Z,14.20
2018-09-17T07:32:37.131Z,14.20
2018-09-17T07:35:06.777Z,14.20
2018-09-17T07:37:38.569Z,14.20
2018-09-17T07:40:07.160Z,14.30
2018-09-17T07:42:40.610Z,14.20
2018-09-17T07:45:09.786Z,14.30
2018-09-17T07:47:38.755Z,14.40
2018-09-17T07:50:09.171Z,14.50
2018-09-17T07:52:37.145Z,14.50
2018-09-17T07:55:06.481Z,14.50
2018-09-17T07:57:35.922Z,14.60
2018-09-17T08:00:04.897Z,14.70
2018-09-17T08:02:33.849Z,14.70
2018-09-17T08:05:02.545Z,14.80
2018-09-17T08:07:31.299Z,14.70
2018-09-17T08:10:00.838Z,14.80
2018-09-17T08:12:28.741Z,14.80
2018-09-17T08:14:57.607Z,14.90
2018-09-17T08:17:26.618Z,15.00
2018-09-17T08:19:55.971Z,15.00
2018-09-17T08:22:24.806Z,15.00
2018-09-17T08:24:53.437Z,15.10
2018-09-17T08:27:26.398Z,15.10
2018-09-17T08:29:59.466Z,15.10
2018-09-17T08:32:28.805Z,15.00
2018-09-17T08:34:59.629Z,15.10
2018-09-17T08:37:27.897Z,15.20
2018-09-17T08:39:59.317Z,15.20
2018-09-17T08:42:28.725Z,15.40
2018-09-17T08:44:57.153Z,15.50
2018-09-17T08:47:25.259Z,15.50
2018-09-17T08:49:52.816Z,15.40
2018-09-17T08:52:21.067Z,15.40
2018-09-17T08:54:54.368Z,15.50
2018-09-17T08:57:27.898Z,15.50
2018-09-17T09:00:01.265Z,15.50
2018-09-17T09:02:34.877Z,15.50
2018-09-17T09:05:09.227Z,15.60
2018-09-17T09:07:43.071Z,15.50
2018-09-17T09:10:17.793Z,15.60
2018-09-17T09:12:51.190Z,15.50
2018-09-17T09:15:22.891Z,15.40
2018-09-17T09:17:50.842Z,15.50
2018-09-17T09:20:18.918Z,15.60
2018-09-17T09:22:47.913Z,15.50
2018-09-17T09:25:16.251Z,15.60
2018-09-17T09:27:46.466Z,15.60
2018-09-17T09:30:15.993Z,15.50
2018-09-17T09:32:44.654Z,15.50
2018-09-17T09:35:12.585Z,15.60
2018-09-17T09:37:42.308Z,15.60
2018-09-17T09:40:10.967Z,15.60
2018-09-17T09:42:39.068Z,15.50
2018-09-17T09:45:06.926Z,15.40
2018-09-17T09:47:34.839Z,15.40
2018-09-17T09:50:03.578Z,15.40
2018-09-17T09:52:31.926Z,15.50
2018-09-17T09:55:01.022Z,15.50
2018-09-17T09:57:29.186Z,15.50
2018-09-17T09:59:58.846Z,15.60
2018-09-17T10:02:32.107Z,15.70
2018-09-17T10:05:00.352Z,15.70
2018-09-17T10:07:28.951Z,15.70
2018-09-17T10:11:06.077Z,15.80
2018-09-17T10:13:39.720Z,15.80
2018-09-17T10:16:13.229Z,15.70
2018-09-17T10:18:47.414Z,15.70
2018-09-17T10:21:16.130Z,15.80
2018-09-17T10:23:44.713Z,15.90
2018-09-17T10:26:12.633Z,15.80
2018-09-17T10:28:40.900Z,15.90
2018-09-17T10:31:09.113Z,15.80
2018-09-17T10:33:39.281Z,15.80
2018-09-17T10:36:08.604Z,15.90
2018-09-17T10:38:36.390Z,15.90
2018-09-17T10:41:04.863Z,16.00
2018-09-17T10:43:32.809Z,16.10
2018-09-17T10:46:00.601Z,16.20
2018-09-17T10:48:29.553Z,16.10
2018-09-17T10:50:59.321Z,16.30
2018-09-17T10:53:27.540Z,16.30
2018-09-17T10:55:56.537Z,16.30
2018-09-17T10:58:25.938Z,16.30
2018-09-17T11:00:54.189Z,16.30
2018-09-17T11:03:21.923Z,16.40
2018-09-17T11:05:55.785Z,16.60
2018-09-17T11:08:26.886Z,16.70
2018-09-17T11:10:55.918Z,16.50
2018-09-17T11:13:24.910Z,16.50
2018-09-17T11:15:54.651Z,16.50
2018-09-17T11:18:22.768Z,16.60
2018-09-17T11:20:51.937Z,16.60
2018-09-17T11:23:21.422Z,16.60
2018-09-17T11:25:50.018Z,16.50
2018-09-17T11:28:19.236Z,16.50
2018-09-17T11:30:47.856Z,16.40
2018-09-17T11:33:17.884Z,16.30
2018-09-17T11:35:48.982Z,16.30
2018-09-17T11:38:17.821Z,16.30
2018-09-17T11:40:48.604Z,16.40
2018-09-17T11:43:17.253Z,16.30
2018-09-17T11:45:45.247Z,16.30
2018-09-17T11:48:14.102Z,16.30
2018-09-17T11:50:43.490Z,16.20
2018-09-17T11:53:14.431Z,16.30
2018-09-17T11:55:43.595Z,16.40
2018-09-17T11:58:12.769Z,16.60
2018-09-17T12:01:48.192Z,16.70
2018-09-17T12:04:22.043Z,16.60
2018-09-17T12:06:55.811Z,16.80
2018-09-17T12:09:24.383Z,16.90
2018-09-17T12:11:52.290Z,16.70
2018-09-17T12:14:20.917Z,16.70
2018-09-17T12:16:50.293Z,16.90
2018-09-17T12:19:19.601Z,17.10
2018-09-17T12:21:48.105Z,17.30
2018-09-17T12:24:16.442Z,17.50
2018-09-17T12:26:44.893Z,17.40
2018-09-17T12:29:14.890Z,17.40
2018-09-17T12:31:43.077Z,17.30
2018-09-17T12:34:12.549Z,17.30
2018-09-17T12:36:42.127Z,17.10
2018-09-17T12:39:12.339Z,16.90
2018-09-17T12:41:41.121Z,17.10
2018-09-17T12:44:08.880Z,17.00
2018-09-17T12:46:37.692Z,16.70
2018-09-17T12:49:05.701Z,16.10
2018-09-17T12:51:35.921Z,16.40
2018-09-17T12:54:05.734Z,16.30
2018-09-17T12:56:34.330Z,16.30
2018-09-17T12:59:03.274Z,16.40
2018-09-17T13:01:35.894Z,16.10
2018-09-17T13:04:04.934Z,15.80
2018-09-17T13:06:33.766Z,15.90
2018-09-17T13:09:02.915Z,15.80
2018-09-17T13:11:32.728Z,15.70
2018-09-17T13:14:01.137Z,15.80
2018-09-17T13:16:30.393Z,15.90
2018-09-17T13:18:58.532Z,15.90
2018-09-17T13:21:26.505Z,15.80
2018-09-17T13:23:53.901Z,15.80
2018-09-17T13:26:21.841Z,15.40
2018-09-17T13:28:49.549Z,15.70
2018-09-17T13:31:19.224Z,15.50
2018-09-17T13:33:47.626Z,15.30
2018-09-17T13:36:16.139Z,15.00
2018-09-17T13:38:44.481Z,15.00
2018-09-17T13:41:13.537Z,14.80
2018-09-17T13:43:43.341Z,14.80
2018-09-17T13:46:12.955Z,14.80
2018-09-17T13:48:42.413Z,14.70
2018-09-17T13:51:11.189Z,14.60
2018-09-17T13:53:39.686Z,14.50
2018-09-17T13:56:08.233Z,14.60
2018-09-17T13:58:36.184Z,14.80
2018-09-17T14:01:04.674Z,14.80
2018-09-17T14:03:34.792Z,14.80
2018-09-17T14:06:02.806Z,14.80
2018-09-17T14:08:31.048Z,14.70
2018-09-17T14:10:59.086Z,14.60
2018-09-17T14:13:27.433Z,14.80
2018-09-17T14:16:03.765Z,14.80
2018-09-17T14:18:36.150Z,14.40
2018-09-17T14:21:06.271Z,14.40
2018-09-17T14:23:36.376Z,14.10
2018-09-17T14:26:06.230Z,14.20
2018-09-17T14:28:37.357Z,14.30
2018-09-17T14:31:07.272Z,14.30
2018-09-17T14:33:38.582Z,14.20
2018-09-17T14:36:07.040Z,14.00
2018-09-17T14:38:35.931Z,14.10
2018-09-17T14:41:04.373Z,14.20
2018-09-17T14:43:31.910Z,14.40
2018-09-17T14:45:59.690Z,14.40
2018-09-17T14:48:28.662Z,14.40
2018-09-17T14:50:58.780Z,14.30
2018-09-17T14:53:28.785Z,14.10
2018-09-17T14:55:57.322Z,14.30
2018-09-17T14:58:26.307Z,14.20
2018-09-17T15:00:53.922Z,14.30
2018-09-17T15:03:21.570Z,14.40
2018-09-17T15:05:49.253Z,14.40
2018-09-17T15:08:19.292Z,14.40
2018-09-17T15:10:47.121Z,14.50
2018-09-17T15:13:15.103Z,14.30
2018-09-17T15:15:48.527Z,14.40
2018-09-17T15:18:18.240Z,14.30
2018-09-17T15:20:47.075Z,14.20
2018-09-17T15:23:15.532Z,14.40
2018-09-17T15:25:45.422Z,14.30
2018-09-17T15:28:13.793Z,14.30
2018-09-17T15:30:42.449Z,14.50
2018-09-17T15:33:10.450Z,14.60
2018-09-17T15:35:38.917Z,14.50
2018-09-17T15:38:07.283Z,14.30
2018-09-17T15:40:36.365Z,14.40
2018-09-17T15:43:05.759Z,14.30
2018-09-17T15:45:36.261Z,14.30
2018-09-17T15:48:05.901Z,14.50
2018-09-17T15:50:35.535Z,14.50
2018-09-17T15:53:05.088Z,14.30
2018-09-17T15:55:33.105Z,14.40
2018-09-17T15:58:03.109Z,14.40
2018-09-17T16:00:32.205Z,14.20
2018-09-17T16:03:00.198Z,14.10
2018-09-17T16:05:28.039Z,14.10
2018-09-17T16:07:57.101Z,14.20
2018-09-17T16:10:26.654Z,14.20
2018-09-17T16:12:55.652Z,14.10
2018-09-17T16:15:23.594Z,14.20
2018-09-17T16:17:53.738Z,14.20
2018-09-17T16:20:21.645Z,14.20
2018-09-17T16:22:49.703Z,14.20
2018-09-17T16:25:18.271Z,14.20
2018-09-17T16:27:47.267Z,14.20
2018-09-17T16:30:15.726Z,14.20
2018-09-17T16:32:45.066Z,14.10
2018-09-17T16:35:14.734Z,14.10
2018-09-17T16:37:43.181Z,14.10
2018-09-17T16:40:11.889Z,14.10
2018-09-17T16:42:41.010Z,14.10
2018-09-17T16:45:10.057Z,14.10
2018-09-17T16:47:38.458Z,14.10
2018-09-17T16:50:08.023Z,14.10
2018-09-17T16:52:36.494Z,13.90
2018-09-17T16:55:09.959Z,13.90
2018-09-17T16:57:37.585Z,13.90
2018-09-17T17:00:05.901Z,13.90
2018-09-17T17:02:35.923Z,13.90
2018-09-17T17:05:05.233Z,13.80
2018-09-17T17:07:33.537Z,13.80
2018-09-17T17:10:01.678Z,13.70
2018-09-17T17:12:29.953Z,13.60
2018-09-17T17:14:58.769Z,13.60
2018-09-17T17:17:27.996Z,13.60
2018-09-17T17:19:57.173Z,13.50
2018-09-17T17:22:25.727Z,13.40
2018-09-17T17:24:53.835Z,13.30
2018-09-17T17:27:22.757Z,13.30
2018-09-17T17:29:51.358Z,13.20
2018-09-17T17:32:19.481Z,13.20
2018-09-17T17:34:47.596Z,13.10
2018-09-17T17:37:15.733Z,13.10
2018-09-17T17:39:44.693Z,13.00
2018-09-17T17:42:12.717Z,13.00
2018-09-17T17:44:40.850Z,13.00
2018-09-17T17:47:08.865Z,13.00
2018-09-17T17:49:37.111Z,12.90
2018-09-17T17:52:05.338Z,12.80
2018-09-17T17:54:33.646Z,12.70
2018-09-17T17:57:02.416Z,12.70
2018-09-17T17:59:31.573Z,12.70
2018-09-17T18:02:00.133Z,12.70
2018-09-17T18:04:28.590Z,12.60
2018-09-17T18:06:57.701Z,12.60
2018-09-17T18:09:25.400Z,12.50
2018-09-17T18:11:53.509Z,12.40
2018-09-17T18:14:23.866Z,12.50
2018-09-17T18:16:51.728Z,12.40
2018-09-17T18:19:20.244Z,12.10
2018-09-17T18:21:49.226Z,12.20
2018-09-17T18:24:17.420Z,12.30
2018-09-17T18:26:46.511Z,12.30
2018-09-17T18:29:15.173Z,12.20
2018-09-17T18:31:43.561Z,12.20
2018-09-17T18:34:11.876Z,12.20
2018-09-17T18:36:41.388Z,12.10
2018-09-17T18:39:10.817Z,12.20
2018-09-17T18:41:44.561Z,12.30
2018-09-17T18:44:14.169Z,12.20
2018-09-17T18:46:44.887Z,12.20
2018-09-17T18:49:14.354Z,12.20
2018-09-17T18:51:43.394Z,12.20
2018-09-17T18:54:11.125Z,12.30
2018-09-17T18:56:39.014Z,12.20
2018-09-17T18:59:07.391Z,12.10
2018-09-17T19:01:35.902Z,12.10
2018-09-17T19:04:04.892Z,12.00
2018-09-17T19:06:33.210Z,12.00
2018-09-17T19:09:01.170Z,12.00
2018-09-17T19:11:30.191Z,11.90
2018-09-17T19:14:03.669Z,11.90
2018-09-17T19:16:37.387Z,11.80
2018-09-17T19:19:06.893Z,11.80
2018-09-17T19:21:40.599Z,11.80
2018-09-17T19:24:08.546Z,11.80
2018-09-17T19:26:36.353Z,11.70
2018-09-17T19:29:09.818Z,11.70
2018-09-17T19:31:38.671Z,11.70
2018-09-17T19:34:06.862Z,11.60
2018-09-17T19:36:35.833Z,11.50
2018-09-17T19:40:08.784Z,11.60
2018-09-17T19:42:38.002Z,11.70
2018-09-17T19:45:11.550Z,11.60
2018-09-17T19:47:39.251Z,11.60
2018-09-17T19:50:12.128Z,11.50
2018-09-17T19:52:39.913Z,11.50
2018-09-17T19:55:09.484Z,11.60
2018-09-17T19:57:42.741Z,11.60
2018-09-17T20:00:16.438Z,11.60
2018-09-17T20:02:44.734Z,11.60
2018-09-17T20:05:18.138Z,11.50
2018-09-17T20:07:46.749Z,11.60
2018-09-17T20:10:16.071Z,11.70
2018-09-17T20:12:44.554Z,11.60
2018-09-17T20:15:13.188Z,11.60
2018-09-17T20:17:41.498Z,11.50
2018-09-17T20:20:10.711Z,11.60
2018-09-17T20:22:39.117Z,11.50
2018-09-17T20:25:10.034Z,11.50
2018-09-17T20:27:43.384Z,11.50
2018-09-17T20:30:12.504Z,11.50
2018-09-17T20:32:40.778Z,11.50
2018-09-17T20:35:08.622Z,11.40
2018-09-17T20:37:37.814Z,11.30
2018-09-17T20:40:07.127Z,11.30
2018-09-17T20:42:36.345Z,11.30
2018-09-17T20:45:04.715Z,11.20
2018-09-17T20:47:33.741Z,11.10
2018-09-17T20:50:02.511Z,11.00
2018-09-17T20:52:30.467Z,11.10
2018-09-17T20:54:58.222Z,11.10
2018-09-17T20:57:25.853Z,11.10
2018-09-17T20:59:54.478Z,11.10
2018-09-17T21:02:22.922Z,11.00
2018-09-17T21:04:50.487Z,11.00
2018-09-17T21:07:18.407Z,11.00
2018-09-17T21:09:46.592Z,11.00
2018-09-17T21:12:17.290Z,10.90
2018-09-17T21:14:46.850Z,10.90
2018-09-17T21:17:15.517Z,10.90
2018-09-17T21:19:43.450Z,10.90
2018-09-17T21:22:12.506Z,10.80
2018-09-17T21:24:40.815Z,10.80
2018-09-17T21:27:10.335Z,10.80
2018-09-17T21:29:38.530Z,10.90
2018-09-17T21:32:06.521Z,10.90
2018-09-17T21:34:34.311Z,10.90
2018-09-17T21:37:02.888Z,10.90
2018-09-17T21:39:31.133Z,10.90
2018-09-17T21:41:59.514Z,10.90
2018-09-17T21:44:28.965Z,10.90
2018-09-17T21:46:58.115Z,10.90
2018-09-17T21:49:26.925Z,10.90
2018-09-17T21:51:56.834Z,10.90
2018-09-17T21:54:26.098Z,10.80
2018-09-17T21:56:56.254Z,10.90
2018-09-17T21:59:24.840Z,10.80
2018-09-17T22:01:53.741Z,10.90
2018-09-17T22:04:22.335Z,10.90
2018-09-17T22:06:51.335Z,10.80
2018-09-17T22:09:19.945Z,10.80
2018-09-17T22:11:49.144Z,10.80
2018-09-17T22:14:20.917Z,10.70
2018-09-17T22:16:49.410Z,10.90
2018-09-17T22:19:18.518Z,10.80
2018-09-17T22:21:47.081Z,10.90
2018-09-17T22:24:15.472Z,10.90
2018-09-17T22:26:44.784Z,10.90
2018-09-17T22:29:13.877Z,10.80
2018-09-17T22:31:42.413Z,10.90
2018-09-17T22:34:10.624Z,10.90
2018-09-17T22:36:38.972Z,10.90
2018-09-17T22:39:09.348Z,10.90
2018-09-17T22:41:38.541Z,10.90
2018-09-17T22:44:07.997Z,10.80
2018-09-17T22:46:35.757Z,10.80
2018-09-17T22:49:03.425Z,10.90
2018-09-17T22:51:31.354Z,10.80
2018-09-17T22:53:59.245Z,10.80
2018-09-17T22:56:27.281Z,10.80
2018-09-17T22:58:55.748Z,10.80
2018-09-17T23:01:24.441Z,10.90
2018-09-17T23:03:52.761Z,10.90
2018-09-17T23:06:20.850Z,10.80
2018-09-17T23:08:48.677Z,10.90
2018-09-17T23:11:17.310Z,10.90
2018-09-17T23:13:46.183Z,10.80
2018-09-17T23:16:14.290Z,10.80
2018-09-17T23:18:46.437Z,10.80
2018-09-17T23:21:19.645Z,10.60
2018-09-17T23:23:48.433Z,10.70
2018-09-17T23:26:17.008Z,10.70
2018-09-17T23:28:45.222Z,10.80
2018-09-17T23:31:14.521Z,10.70
2018-09-17T23:33:43.793Z,10.70
2018-09-17T23:36:11.968Z,10.70
2018-09-17T23:38:41.328Z,10.70
2018-09-17T23:41:10.969Z,10.70
2018-09-17T23:43:40.218Z,10.70
2018-09-17T23:46:08.849Z,10.70
2018-09-17T23:48:37.961Z,10.60
2018-09-17T23:51:10.739Z,10.70
2018-09-17T23:53:38.616Z,10.70
2018-09-17T23:56:07.403Z,10.70
2018-09-17T23:58:37.904Z,10.70
